createdAt,value
2018-08-20T00:01:46.492Z,8.10
2018-08-20T00:04:15.109Z,6.77
2018-08-20T00:06:51.399Z,7.80
2018-08-20T00:09:21.377Z,7.27
2018-08-20T00:11:50.010Z,7.03
2018-08-20T00:14:20.920Z,7.37
2018-08-20T00:16:49.573Z,7.47
2018-08-20T00:19:18.044Z,6.50
2018-08-20T00:21:46.667Z,9.43
2018-08-20T00:24:15.076Z,7.43
2018-08-20T00:26:43.537Z,6.83
2018-08-20T00:29:11.989Z,6.60
2018-08-20T00:31:41.603Z,7.47
2018-08-20T00:34:10.089Z,6.53
2018-08-20T00:36:38.722Z,6.67
2018-08-20T00:39:09.056Z,7.40
2018-08-20T00:41:38.637Z,7.50
2018-08-20T00:44:10.838Z,6.63
2018-08-20T00:46:39.432Z,6.73
2018-08-20T00:49:07.880Z,7.63
2018-08-20T00:51:36.706Z,7.03
2018-08-20T00:54:05.182Z,9.73
2018-08-20T00:56:33.756Z,6.80
2018-08-20T00:59:03.155Z,6.50
2018-08-20T01:01:32.045Z,7.57
2018-08-20T01:04:00.978Z,9.03
2018-08-20T01:06:30.030Z,7.00
2018-08-20T01:08:58.482Z,7.50
2018-08-20T01:11:28.044Z,6.63
2018-08-20T01:13:56.544Z,10.00
2018-08-20T01:16:25.614Z,6.87
2018-08-20T01:18:54.377Z,6.03
2018-08-20T01:21:24.382Z,6.63
2018-08-20T01:23:52.794Z,6.73
2018-08-20T01:26:21.190Z,7.13
2018-08-20T01:28:49.822Z,7.30
2018-08-20T01:31:18.302Z,7.83
2018-08-20T01:33:46.811Z,6.30
2018-08-20T01:36:15.307Z,6.57
2018-08-20T01:38:43.878Z,8.53
2018-08-20T01:41:12.323Z,5.67
2018-08-20T01:43:40.844Z,7.23
2018-08-20T01:46:09.476Z,7.60
2018-08-20T01:48:38.044Z,7.60
2018-08-20T01:51:06.513Z,6.90
2018-08-20T01:53:35.010Z,7.00
2018-08-20T01:56:03.460Z,7.53
2018-08-20T01:58:32.466Z,7.47
2018-08-20T02:01:00.946Z,6.13
2018-08-20T02:03:29.936Z,6.20
2018-08-20T02:05:58.431Z,6.40
2018-08-20T02:08:27.024Z,8.47
2018-08-20T02:10:56.373Z,7.67
2018-08-20T02:13:25.582Z,7.93
2018-08-20T02:15:54.121Z,6.93
2018-08-20T02:18:22.696Z,7.40
2018-08-20T02:20:51.166Z,7.90
2018-08-20T02:23:19.719Z,8.30
2018-08-20T02:25:48.405Z,7.07
2018-08-20T02:28:16.906Z,7.23
2018-08-20T02:30:45.322Z,7.53
2018-08-20T02:33:13.760Z,9.40
2018-08-20T02:35:42.344Z,6.87
2018-08-20T02:38:10.865Z,6.60
2018-08-20T02:40:39.612Z,7.60
2018-08-20T02:43:08.121Z,7.30
2018-08-20T02:45:37.062Z,7.50
2018-08-20T02:48:06.240Z,7.23
2018-08-20T02:50:34.930Z,7.53
2018-08-20T02:53:03.488Z,8.13
2018-08-20T02:55:31.987Z,8.73
2018-08-20T02:58:00.486Z,7.80
2018-08-20T03:00:29.025Z,7.30
2018-08-20T03:03:01.759Z,7.67
2018-08-20T03:05:30.292Z,7.60
2018-08-20T03:07:59.055Z,7.90
2018-08-20T03:10:27.575Z,7.47
2018-08-20T03:12:55.992Z,8.87
2018-08-20T03:15:25.531Z,7.43
2018-08-20T03:17:54.337Z,7.30
2018-08-20T03:20:22.768Z,9.67
2018-08-20T03:22:51.186Z,9.63
2018-08-20T03:25:19.801Z,7.33
2018-08-20T03:27:48.243Z,8.50
2018-08-20T03:30:17.115Z,7.40
2018-08-20T03:32:45.543Z,8.03
2018-08-20T03:35:14.515Z,7.33
2018-08-20T03:37:42.944Z,8.47
2018-08-20T03:40:12.729Z,7.10
2018-08-20T03:42:41.530Z,7.23
2018-08-20T03:45:10.725Z,10.17
2018-08-20T03:47:39.281Z,7.93
2018-08-20T03:50:10.298Z,7.33
2018-08-20T03:52:39.170Z,8.73
2018-08-20T03:55:07.614Z,7.63
2018-08-20T03:57:36.496Z,8.03
2018-08-20T04:00:05.867Z,7.63
2018-08-20T04:02:34.226Z,8.83
2018-08-20T04:05:02.791Z,8.63
2018-08-20T04:07:31.390Z,7.30
2018-08-20T04:10:00.033Z,7.47
2018-08-20T04:12:28.473Z,7.07
2018-08-20T04:14:56.938Z,7.17
2018-08-20T04:17:25.386Z,7.73
2018-08-20T04:19:54.109Z,7.03
2018-08-20T04:22:22.534Z,7.63
2018-08-20T04:24:50.972Z,8.50
2018-08-20T04:27:19.355Z,6.63
2018-08-20T04:29:47.930Z,8.07
2018-08-20T04:32:16.359Z,7.00
2018-08-20T04:34:44.847Z,8.77
2018-08-20T04:37:13.244Z,6.73
2018-08-20T04:39:41.799Z,8.50
2018-08-20T04:42:10.250Z,8.53
2018-08-20T04:44:38.849Z,7.63
2018-08-20T04:47:07.370Z,8.30
2018-08-20T04:49:35.754Z,8.83
2018-08-20T04:52:04.325Z,6.80
2018-08-20T04:54:32.690Z,7.43
2018-08-20T04:57:01.231Z,7.63
2018-08-20T04:59:30.000Z,8.73
2018-08-20T05:01:58.962Z,6.87
2018-08-20T05:04:28.144Z,8.13
2018-08-20T05:06:57.639Z,7.60
2018-08-20T05:09:26.856Z,6.90
2018-08-20T05:11:55.663Z,6.00
2018-08-20T05:14:24.188Z,9.63
2018-08-20T05:16:52.744Z,8.20
2018-08-20T05:19:21.250Z,7.97
2018-08-20T05:21:49.806Z,8.07
2018-08-20T05:24:18.275Z,8.13
2018-08-20T05:26:46.902Z,7.07
2018-08-20T05:29:15.563Z,12.20
2018-08-20T05:31:44.301Z,6.37
2018-08-20T05:34:12.771Z,7.47
2018-08-20T05:36:41.288Z,7.43
2018-08-20T05:39:11.031Z,8.03
2018-08-20T05:41:40.647Z,7.10
2018-08-20T05:44:09.141Z,7.30
2018-08-20T05:46:37.757Z,7.97
2018-08-20T05:49:06.483Z,8.03
2018-08-20T05:51:34.999Z,9.47
2018-08-20T05:54:03.781Z,6.47
2018-08-20T05:56:32.506Z,6.13
2018-08-20T05:59:00.944Z,10.10
2018-08-20T06:01:30.134Z,8.37
2018-08-20T06:03:58.569Z,7.47
2018-08-20T06:06:27.879Z,6.57
2018-08-20T06:08:57.389Z,7.53
2018-08-20T06:11:26.915Z,8.97
2018-08-20T06:13:56.456Z,6.80
2018-08-20T06:16:25.860Z,7.60
2018-08-20T06:18:54.342Z,9.93
2018-08-20T06:21:24.237Z,6.13
2018-08-20T06:23:52.694Z,7.30
2018-08-20T06:26:21.441Z,8.20
2018-08-20T06:28:49.872Z,7.70
2018-08-20T06:31:19.531Z,7.10
2018-08-20T06:33:48.286Z,9.73
2018-08-20T06:36:16.930Z,7.30
2018-08-20T06:38:45.410Z,7.70
2018-08-20T06:41:14.304Z,8.73
2018-08-20T06:43:42.747Z,9.33
2018-08-20T06:46:11.769Z,12.17
2018-08-20T06:48:40.342Z,10.90
2018-08-20T06:51:10.155Z,9.53
2018-08-20T06:53:38.582Z,10.90
2018-08-20T06:56:07.540Z,29.70
2018-08-20T06:58:36.055Z,33.97
2018-08-20T07:01:05.652Z,15.03
2018-08-20T07:03:34.474Z,13.70
2018-08-20T07:06:03.415Z,10.53
2018-08-20T07:08:31.863Z,11.30
2018-08-20T07:11:01.414Z,10.03
2018-08-20T07:13:33.498Z,9.23
2018-08-20T07:16:02.083Z,8.47
2018-08-20T07:18:30.580Z,8.87
2018-08-20T07:21:01.886Z,7.60
2018-08-20T07:23:30.922Z,7.50
2018-08-20T07:25:59.577Z,10.67
2018-08-20T07:28:28.486Z,9.33
2018-08-20T07:30:57.863Z,9.17
2018-08-20T07:33:27.020Z,9.33
2018-08-20T07:35:56.301Z,8.53
2018-08-20T07:38:24.658Z,9.43
2018-08-20T07:40:54.185Z,8.03
2018-08-20T07:43:22.704Z,7.00
2018-08-20T07:45:51.305Z,8.03
2018-08-20T07:48:20.191Z,8.43
2018-08-20T07:50:48.774Z,9.20
2018-08-20T07:53:17.351Z,8.60
2018-08-20T07:55:46.328Z,10.07
2018-08-20T07:58:14.938Z,11.27
2018-08-20T08:00:43.813Z,8.00
2018-08-20T08:03:12.611Z,9.60
2018-08-20T08:05:41.152Z,8.90
2018-08-20T08:08:09.579Z,8.97
2018-08-20T08:10:38.062Z,8.57
2018-08-20T08:13:06.610Z,7.63
2018-08-20T08:15:35.797Z,9.37
2018-08-20T08:18:04.280Z,8.00
2018-08-20T08:20:32.774Z,7.80
2018-08-20T08:23:01.540Z,8.40
2018-08-20T08:25:30.133Z,7.53
2018-08-20T08:27:58.953Z,7.73
2018-08-20T08:30:28.057Z,8.03
2018-08-20T08:32:56.523Z,8.90
2018-08-20T08:35:25.048Z,10.73
2018-08-20T08:37:53.886Z,11.67
2018-08-20T08:40:22.534Z,8.07
2018-08-20T08:42:51.043Z,8.60
2018-08-20T08:45:19.576Z,9.90
2018-08-20T08:47:48.324Z,10.77
2018-08-20T08:50:17.633Z,8.30
2018-08-20T08:52:46.602Z,7.90
2018-08-20T08:55:15.494Z,8.23
2018-08-20T08:57:44.331Z,9.33
2018-08-20T09:01:46.081Z,7.57
2018-08-20T09:04:14.649Z,14.30
2018-08-20T09:06:43.129Z,13.53
2018-08-20T09:09:11.581Z,14.03
2018-08-20T09:11:40.133Z,7.87
2018-08-20T09:14:08.644Z,7.23
2018-08-20T09:16:37.188Z,9.20
2018-08-20T09:19:05.769Z,7.93
2018-08-20T09:21:34.384Z,9.07
2018-08-20T09:24:03.267Z,6.70
2018-08-20T09:26:31.758Z,7.97
2018-08-20T09:29:00.200Z,6.37
2018-08-20T09:31:29.799Z,8.07
2018-08-20T09:33:59.283Z,7.30
2018-08-20T09:36:27.816Z,10.07
2018-08-20T09:38:56.351Z,8.70
2018-08-20T09:41:24.879Z,6.53
2018-08-20T09:43:53.375Z,6.03
2018-08-20T09:46:22.022Z,9.27
2018-08-20T09:48:50.633Z,6.83
2018-08-20T09:51:19.206Z,5.77
2018-08-20T09:53:47.611Z,8.47
2018-08-20T09:56:16.174Z,5.73
2018-08-20T09:58:45.079Z,6.47
2018-08-20T10:01:13.485Z,7.90
2018-08-20T10:03:44.711Z,6.63
2018-08-20T10:06:14.057Z,6.40
2018-08-20T10:08:42.516Z,5.50
2018-08-20T10:11:11.883Z,8.67
2018-08-20T10:13:40.307Z,5.97
2018-08-20T10:16:09.040Z,5.53
2018-08-20T10:18:38.081Z,8.63
2018-08-20T10:21:06.963Z,7.77
2018-08-20T10:23:35.611Z,6.33
2018-08-20T10:26:04.122Z,6.13
2018-08-20T10:28:32.561Z,9.30
2018-08-20T10:31:01.092Z,6.23
2018-08-20T10:33:29.490Z,6.07
2018-08-20T10:35:58.588Z,5.67
2018-08-20T10:38:27.287Z,5.97
2018-08-20T10:40:58.495Z,6.20
2018-08-20T10:43:27.228Z,6.83
2018-08-20T10:46:30.678Z,7.43
2018-08-20T10:48:59.130Z,4.57
2018-08-20T10:51:28.230Z,4.30
2018-08-20T10:53:57.179Z,4.33
2018-08-20T10:56:25.829Z,5.13
2018-08-20T10:58:54.365Z,4.17
2018-08-20T11:01:24.823Z,5.30
2018-08-20T11:03:56.970Z,5.37
2018-08-20T11:06:27.337Z,4.70
2018-08-20T11:08:55.863Z,6.80
2018-08-20T11:11:24.318Z,6.83
2018-08-20T11:13:52.747Z,4.70
2018-08-20T11:16:21.325Z,4.80
2018-08-20T11:18:49.838Z,5.60
2018-08-20T11:21:18.399Z,4.10
2018-08-20T11:23:47.161Z,5.20
2018-08-20T11:26:16.692Z,4.10
2018-08-20T11:28:45.089Z,3.93
2018-08-20T11:31:13.910Z,5.13
2018-08-20T11:33:42.300Z,4.67
2018-08-20T11:36:10.746Z,4.20
2018-08-20T11:38:39.270Z,5.67
2018-08-20T11:41:07.784Z,5.43
2018-08-20T11:43:36.183Z,4.47
2018-08-20T11:46:08.532Z,4.20
2018-08-20T11:48:36.947Z,4.37
2018-08-20T11:51:08.929Z,6.20
2018-08-20T11:53:37.306Z,5.90
2018-08-20T11:56:06.171Z,5.43
2018-08-20T11:58:34.575Z,6.07
2018-08-20T12:01:04.298Z,6.50
2018-08-20T12:03:32.868Z,5.97
2018-08-20T12:06:01.475Z,3.90
2018-08-20T12:08:30.004Z,4.50
2018-08-20T12:10:59.542Z,4.67
2018-08-20T12:13:28.762Z,5.60
2018-08-20T12:15:59.042Z,5.93
2018-08-20T12:18:27.497Z,4.00
2018-08-20T12:20:56.986Z,3.90
2018-08-20T12:23:25.783Z,5.03
2018-08-20T12:25:56.634Z,3.90
2018-08-20T12:28:25.055Z,6.30
2018-08-20T12:30:54.558Z,5.10
2018-08-20T12:33:23.135Z,3.87
2018-08-20T12:35:51.675Z,4.90
2018-08-20T12:38:20.084Z,3.90
2018-08-20T12:40:48.680Z,4.43
2018-08-20T12:43:17.132Z,4.43
2018-08-20T12:45:45.622Z,5.00
2018-08-20T12:48:14.025Z,5.40
2018-08-20T12:50:43.699Z,4.80
2018-08-20T12:53:12.105Z,4.93
2018-08-20T12:55:41.621Z,4.47
2018-08-20T12:58:10.621Z,5.23
2018-08-20T13:00:39.221Z,4.33
2018-08-20T13:03:07.778Z,6.00
2018-08-20T13:05:36.297Z,6.23
2018-08-20T13:08:05.087Z,4.77
2018-08-20T13:10:34.555Z,6.50
2018-08-20T13:13:02.957Z,4.93
2018-08-20T13:15:31.399Z,4.60
2018-08-20T13:18:00.112Z,4.80
2018-08-20T13:20:30.465Z,5.50
2018-08-20T13:22:59.671Z,5.30
2018-08-20T13:25:30.199Z,8.33
2018-08-20T13:27:59.609Z,5.37
2018-08-20T13:30:30.480Z,4.43
2018-08-20T13:32:59.511Z,4.30
2018-08-20T13:35:30.082Z,5.43
2018-08-20T13:37:59.563Z,4.83
2018-08-20T13:40:30.537Z,4.33
2018-08-20T13:42:59.810Z,4.17
2018-08-20T13:45:32.847Z,4.00
2018-08-20T13:48:01.364Z,3.50
2018-08-20T13:50:31.492Z,5.43
2018-08-20T13:53:00.802Z,4.83
2018-08-20T13:55:34.985Z,4.67
2018-08-20T13:58:03.754Z,3.20
2018-08-20T14:00:32.211Z,4.47
2018-08-20T14:03:00.647Z,6.33
2018-08-20T14:05:30.141Z,3.73
2018-08-20T14:07:59.143Z,3.90
2018-08-20T14:10:28.014Z,3.50
2018-08-20T14:12:56.470Z,6.57
2018-08-20T14:15:28.260Z,4.50
2018-08-20T14:17:58.043Z,4.07
2018-08-20T14:20:27.167Z,5.17
2018-08-20T14:22:55.557Z,5.07
2018-08-20T14:25:24.144Z,5.03
2018-08-20T14:27:52.573Z,5.00
2018-08-20T14:30:21.084Z,4.07
2018-08-20T14:32:49.616Z,6.67
2018-08-20T14:35:18.073Z,5.23
2018-08-20T14:37:46.575Z,5.97
2018-08-20T14:40:17.154Z,6.40
2018-08-20T14:42:46.007Z,5.27
2018-08-20T14:45:15.812Z,3.70
2018-08-20T14:47:45.260Z,3.90
2018-08-20T14:50:15.854Z,4.27
2018-08-20T14:52:44.320Z,4.80
2018-08-20T14:55:13.239Z,5.40
2018-08-20T14:57:41.654Z,4.80
2018-08-20T15:00:13.254Z,6.97
2018-08-20T15:02:41.719Z,5.30
2018-08-20T15:05:10.321Z,4.67
2018-08-20T15:07:38.786Z,11.73
2018-08-20T15:10:09.339Z,8.23
2018-08-20T15:12:37.794Z,7.13
2018-08-20T15:15:07.347Z,8.20
2018-08-20T15:17:35.912Z,6.10
2018-08-20T15:20:05.622Z,5.93
2018-08-20T15:22:34.052Z,6.13
2018-08-20T15:25:02.595Z,4.83
2018-08-20T15:27:30.959Z,6.50
2018-08-20T15:30:00.390Z,5.83
2018-08-20T15:32:29.157Z,7.00
2018-08-20T15:34:57.987Z,6.57
2018-08-20T15:37:26.516Z,7.03
2018-08-20T15:39:55.016Z,8.80
2018-08-20T15:42:23.446Z,6.60
2018-08-20T15:44:51.899Z,7.97
2018-08-20T15:47:20.404Z,6.60
2018-08-20T15:49:48.898Z,7.37
2018-08-20T15:52:17.320Z,9.07
2018-08-20T15:54:45.856Z,9.43
2018-08-20T15:57:14.269Z,8.53
2018-08-20T15:59:44.481Z,7.23
2018-08-20T16:02:13.227Z,7.93
2018-08-20T16:04:41.894Z,6.43
2018-08-20T16:07:10.398Z,8.70
2018-08-20T16:09:38.893Z,8.57
2018-08-20T16:12:07.419Z,7.07
2018-08-20T16:14:35.946Z,9.20
2018-08-20T16:17:04.413Z,7.00
2018-08-20T16:19:32.892Z,6.47
2018-08-20T16:22:01.333Z,7.43
2018-08-20T16:24:30.387Z,6.83
2018-08-20T16:26:59.207Z,6.37
2018-08-20T16:29:28.475Z,9.67
2018-08-20T16:31:56.957Z,7.43
2018-08-20T16:34:25.737Z,8.80
2018-08-20T16:36:54.229Z,12.13
2018-08-20T16:39:23.146Z,8.53
2018-08-20T16:41:51.700Z,9.40
2018-08-20T16:44:20.468Z,7.10
2018-08-20T16:46:48.894Z,8.60
2018-08-20T16:49:17.416Z,13.27
2018-08-20T16:51:45.902Z,7.67
2018-08-20T16:54:14.404Z,7.17
2018-08-20T16:56:42.934Z,7.83
2018-08-20T16:59:11.757Z,7.33
2018-08-20T17:01:40.363Z,10.00
2018-08-20T17:04:24.502Z,7.53
2018-08-20T17:06:53.104Z,9.47
2018-08-20T17:09:21.674Z,8.13
2018-08-20T17:11:50.015Z,8.87
2018-08-20T17:14:18.477Z,10.93
2018-08-20T17:16:46.913Z,11.53
2018-08-20T17:19:15.497Z,8.67
2018-08-20T17:21:44.023Z,11.13
2018-08-20T17:24:12.634Z,9.10
2018-08-20T17:26:41.073Z,8.43
2018-08-20T17:29:10.591Z,10.73
2018-08-20T17:31:39.422Z,7.73
2018-08-20T17:34:08.020Z,7.93
2018-08-20T17:36:40.154Z,7.43
2018-08-20T17:39:09.601Z,8.00
2018-08-20T17:41:38.336Z,7.87
2018-08-20T17:44:06.937Z,6.47
2018-08-20T17:46:35.394Z,7.03
2018-08-20T17:49:03.961Z,7.20
2018-08-20T17:51:32.458Z,8.67
2018-08-20T17:54:01.017Z,8.37
2018-08-20T17:56:29.976Z,7.80
2018-08-20T17:59:03.452Z,7.63
2018-08-20T18:01:35.524Z,7.33
2018-08-20T18:04:04.338Z,7.00
2018-08-20T18:06:45.319Z,7.30
2018-08-20T18:09:14.191Z,6.10
2018-08-20T18:11:48.125Z,8.27
2018-08-20T18:14:16.893Z,7.50
2018-08-20T18:16:45.728Z,7.23
2018-08-20T18:19:14.413Z,9.53
2018-08-20T18:21:43.064Z,7.00
2018-08-20T18:24:16.714Z,8.70
2018-08-20T18:26:47.313Z,7.00
2018-08-20T18:29:15.750Z,7.83
2018-08-20T18:31:44.509Z,7.03
2018-08-20T18:34:13.048Z,8.37
2018-08-20T18:36:41.892Z,8.67
2018-08-20T18:39:12.247Z,5.77
2018-08-20T18:42:15.361Z,8.57
2018-08-20T18:44:44.539Z,9.87
2018-08-20T18:47:14.244Z,7.87
2018-08-20T18:49:54.626Z,8.40
2018-08-20T18:52:23.952Z,6.63
2018-08-20T18:54:53.803Z,6.40
2018-08-20T18:57:23.714Z,6.40
2018-08-20T18:59:52.950Z,5.93
2018-08-20T19:02:56.341Z,6.80
2018-08-20T19:05:24.783Z,6.87
2018-08-20T19:07:53.382Z,6.90
2018-08-20T19:10:29.262Z,7.00
2018-08-20T19:12:58.440Z,6.37
2018-08-20T19:15:45.595Z,6.00
2018-08-20T19:18:18.678Z,5.47
2018-08-20T19:20:47.184Z,7.80
2018-08-20T19:23:16.240Z,7.73
2018-08-20T19:25:44.675Z,5.63
2018-08-20T19:28:18.599Z,7.43
2018-08-20T19:30:47.426Z,5.80
2018-08-20T19:33:21.418Z,6.03
2018-08-20T19:35:50.173Z,6.80
2018-08-20T19:38:19.762Z,6.00
2018-08-20T19:40:58.361Z,5.17
2018-08-20T19:43:30.536Z,7.03
2018-08-20T19:45:59.358Z,7.30
2018-08-20T19:48:28.333Z,5.87
2018-08-20T19:50:56.769Z,5.60
2018-08-20T19:53:25.306Z,6.80
2018-08-20T19:55:54.480Z,6.17
2018-08-20T19:58:28.391Z,4.67
2018-08-20T20:01:08.471Z,6.00
2018-08-20T20:03:37.013Z,5.23
2018-08-20T20:06:05.943Z,5.07
2018-08-20T20:08:34.414Z,6.27
2018-08-20T20:11:03.081Z,6.70
2018-08-20T20:13:31.450Z,6.60
2018-08-20T20:16:01.313Z,6.10
2018-08-20T20:18:29.813Z,5.80
2018-08-20T20:20:58.308Z,6.00
2018-08-20T20:23:27.094Z,6.53
2018-08-20T20:25:56.071Z,5.47
2018-08-20T20:28:24.489Z,5.23
2018-08-20T20:30:52.939Z,6.20
2018-08-20T20:33:22.616Z,5.00
2018-08-20T20:35:51.170Z,5.43
2018-08-20T20:38:19.624Z,5.50
2018-08-20T20:40:48.247Z,6.17
2018-08-20T20:43:19.530Z,6.50
2018-08-20T20:45:47.972Z,5.20
2018-08-20T20:48:16.538Z,5.40
2018-08-20T20:50:44.956Z,5.57
2018-08-20T20:53:13.526Z,5.93
2018-08-20T20:55:42.007Z,6.70
2018-08-20T20:58:14.605Z,5.07
2018-08-20T21:00:43.090Z,5.10
2018-08-20T21:03:28.153Z,5.90
2018-08-20T21:05:57.226Z,5.47
2018-08-20T21:08:32.308Z,4.80
2018-08-20T21:11:01.086Z,5.90
2018-08-20T21:13:29.976Z,4.90
2018-08-20T21:16:03.719Z,5.17
2018-08-20T21:18:34.201Z,5.63
2018-08-20T21:21:02.699Z,5.93
2018-08-20T21:23:31.788Z,5.40
2018-08-20T21:26:00.776Z,7.03
2018-08-20T21:28:34.699Z,5.40
2018-08-20T21:31:03.333Z,6.40
2018-08-20T21:33:31.953Z,4.97
2018-08-20T21:36:00.428Z,5.50
2018-08-20T21:38:30.536Z,5.97
2018-08-20T21:40:59.870Z,7.90
2018-08-20T21:43:32.657Z,5.43
2018-08-20T21:46:01.240Z,8.90
2018-08-20T21:48:30.135Z,6.07
2018-08-20T21:51:02.122Z,5.33
2018-08-20T21:53:36.083Z,7.17
2018-08-20T21:56:05.797Z,7.07
2018-08-20T21:58:36.196Z,5.33
2018-08-20T22:01:05.557Z,5.53
2018-08-20T22:03:34.191Z,5.73
2018-08-20T22:06:02.659Z,7.13
2018-08-20T22:08:31.707Z,7.13
2018-08-20T22:11:00.260Z,5.80
2018-08-20T22:13:28.854Z,7.63
2018-08-20T22:16:11.014Z,5.33
2018-08-20T22:18:40.550Z,6.53
2018-08-20T22:21:13.768Z,8.87
2018-08-20T22:23:43.141Z,5.70
2018-08-20T22:26:17.854Z,8.07
2018-08-20T22:28:48.746Z,6.83
2018-08-20T22:31:17.476Z,5.63
2018-08-20T22:33:58.512Z,6.60
2018-08-20T22:36:28.688Z,6.83
2018-08-20T22:39:00.515Z,7.17
2018-08-20T22:41:30.348Z,6.23
2018-08-20T22:43:58.915Z,6.77
2018-08-20T22:46:27.412Z,6.10
2018-08-20T22:48:57.520Z,7.07
2018-08-20T22:51:26.990Z,6.70
2018-08-20T22:53:57.941Z,8.60
2018-08-20T22:56:29.783Z,6.80
2018-08-20T22:59:01.882Z,8.93
2018-08-20T23:01:31.255Z,9.60
2018-08-20T23:04:00.571Z,6.87
2018-08-20T23:06:29.929Z,6.40
2018-08-20T23:08:58.572Z,6.77
2018-08-20T23:11:39.540Z,6.63
2018-08-20T23:14:09.648Z,7.30
2018-08-20T23:16:38.590Z,9.10
2018-08-20T23:19:08.155Z,6.70
2018-08-20T23:21:44.715Z,8.43
2018-08-20T23:24:13.903Z,7.90
2018-08-20T23:26:42.658Z,8.97
2018-08-20T23:29:11.391Z,8.67
2018-08-20T23:31:40.740Z,7.63
2018-08-20T23:34:10.919Z,8.97
2018-08-20T23:36:39.938Z,7.07
2018-08-20T23:39:10.235Z,7.73
2018-08-20T23:41:39.083Z,6.80
2018-08-20T23:44:07.622Z,7.77
2018-08-20T23:46:43.914Z,8.47
2018-08-20T23:49:12.387Z,9.50
2018-08-20T23:51:41.204Z,7.93
2018-08-20T23:54:10.829Z,8.57
2018-08-20T23:56:39.394Z,7.17
2018-08-20T23:59:08.640Z,10.03
